sensor_id;sensor_type;location;lat;lon;timestamp;pressure;altitude;pressure_sealevel;temperature;humidity
28267;BME280;15525;45.568;5.448;2023-03-03T00:00:11;98234.13;;;6.51;50.57
28267;BME280;15525;45.568;5.448;2023-03-03T00:02:37;98237.19;;;6.43;50.89
28267;BME280;15525;45.568;5.448;2023-03-03T00:05:03;98223.31;;;6.41;50.79
28267;BME280;15525;45.568;5.448;2023-03-03T00:07:28;98238.72;;;6.39;51.00
28267;BME280;15525;45.568;5.448;2023-03-03T00:09:53;98240.13;;;6.30;51.06
28267;BME280;15525;45.568;5.448;2023-03-03T00:12:24;98229.78;;;6.17;51.45
28267;BME280;15525;45.568;5.448;2023-03-03T00:14:50;98216.06;;;6.08;51.31
28267;BME280;15525;45.568;5.448;2023-03-03T00:17:33;98219.38;;;6.15;51.84
28267;BME280;15525;45.568;5.448;2023-03-03T00:20:01;98224.91;;;6.14;51.36
28267;BME280;15525;45.568;5.448;2023-03-03T00:22:46;98239.81;;;6.15;51.08
28267;BME280;15525;45.568;5.448;2023-03-03T00:27:43;98223.94;;;5.92;51.58
28267;BME280;15525;45.568;5.448;2023-03-03T00:30:26;98234.47;;;5.87;53.02
28267;BME280;15525;45.568;5.448;2023-03-03T00:32:53;98233.09;;;5.84;51.85
28267;BME280;15525;45.568;5.448;2023-03-03T00:37:57;98234.47;;;5.87;51.76
28267;BME280;15525;45.568;5.448;2023-03-03T00:40:25;98237.00;;;5.82;51.75
28267;BME280;15525;45.568;5.448;2023-03-03T00:42:56;98234.25;;;5.65;52.46
28267;BME280;15525;45.568;5.448;2023-03-03T00:45:45;98238.38;;;5.73;52.49
28267;BME280;15525;45.568;5.448;2023-03-03T00:48:25;98242.19;;;5.77;51.77
28267;BME280;15525;45.568;5.448;2023-03-03T00:50:56;98229.72;;;5.77;52.25
28267;BME280;15525;45.568;5.448;2023-03-03T00:53:23;98243.25;;;5.76;51.67
28267;BME280;15525;45.568;5.448;2023-03-03T00:55:50;98238.59;;;5.71;51.82
28267;BME280;15525;45.568;5.448;2023-03-03T00:58:16;98238.16;;;5.74;51.50
28267;BME280;15525;45.568;5.448;2023-03-03T01:00:43;98239.75;;;5.75;51.39
28267;BME280;15525;45.568;5.448;2023-03-03T01:03:12;98246.00;;;5.69;51.73
28267;BME280;15525;45.568;5.448;2023-03-03T01:05:38;98243.94;;;5.48;51.61
28267;BME280;15525;45.568;5.448;2023-03-03T01:08:04;98249.84;;;5.39;52.05
28267;BME280;15525;45.568;5.448;2023-03-03T01:10:33;98252.94;;;5.47;52.03
28267;BME280;15525;45.568;5.448;2023-03-03T01:13:00;98243.03;;;5.54;51.86
28267;BME280;15525;45.568;5.448;2023-03-03T01:15:26;98250.75;;;5.33;52.08
28267;BME280;15525;45.568;5.448;2023-03-03T01:17:51;98247.41;;;5.26;52.18
28267;BME280;15525;45.568;5.448;2023-03-03T01:20:17;98236.09;;;5.30;52.27
28267;BME280;15525;45.568;5.448;2023-03-03T01:22:42;98228.50;;;5.34;52.20
28267;BME280;15525;45.568;5.448;2023-03-03T01:25:08;98249.38;;;5.42;52.11
28267;BME280;15525;45.568;5.448;2023-03-03T01:27:34;98250.78;;;5.44;51.98
28267;BME280;15525;45.568;5.448;2023-03-03T01:30:01;98241.53;;;5.24;52.19
28267;BME280;15525;45.568;5.448;2023-03-03T01:32:27;98250.41;;;5.18;52.58
28267;BME280;15525;45.568;5.448;2023-03-03T01:34:53;98253.16;;;5.23;52.21
28267;BME280;15525;45.568;5.448;2023-03-03T01:37:19;98241.06;;;5.15;52.27
28267;BME280;15525;45.568;5.448;2023-03-03T01:39:54;98256.63;;;5.12;53.29
28267;BME280;15525;45.568;5.448;2023-03-03T01:42:20;98241.16;;;4.97;52.81
28267;BME280;15525;45.568;5.448;2023-03-03T01:44:46;98258.47;;;5.11;52.45
28267;BME280;15525;45.568;5.448;2023-03-03T01:47:14;98259.84;;;5.14;52.58
28267;BME280;15525;45.568;5.448;2023-03-03T01:49:49;98261.59;;;5.20;52.42
28267;BME280;15525;45.568;5.448;2023-03-03T01:52:33;98256.41;;;5.25;52.36
28267;BME280;15525;45.568;5.448;2023-03-03T01:55:04;98249.25;;;5.25;51.83
28267;BME280;15525;45.568;5.448;2023-03-03T01:57:34;98258.47;;;5.23;51.97
28267;BME280;15525;45.568;5.448;2023-03-03T02:00:02;98250.28;;;5.13;52.33
28267;BME280;15525;45.568;5.448;2023-03-03T02:02:30;98233.91;;;4.93;52.40
28267;BME280;15525;45.568;5.448;2023-03-03T02:04:56;98248.88;;;4.99;52.25
28267;BME280;15525;45.568;5.448;2023-03-03T02:07:23;98244.38;;;4.88;52.54
28267;BME280;15525;45.568;5.448;2023-03-03T02:09:56;98251.84;;;4.91;52.97
28267;BME280;15525;45.568;5.448;2023-03-03T02:12:28;98245.63;;;4.74;53.48
28267;BME280;15525;45.568;5.448;2023-03-03T02:14:55;98260.34;;;4.70;53.06
28267;BME280;15525;45.568;5.448;2023-03-03T02:17:21;98263.13;;;4.75;52.90
28267;BME280;15525;45.568;5.448;2023-03-03T02:22:37;98242.38;;;4.72;52.63
28267;BME280;15525;45.568;5.448;2023-03-03T02:25:07;98242.16;;;4.73;52.63
28267;BME280;15525;45.568;5.448;2023-03-03T02:27:35;98252.22;;;4.83;52.57
28267;BME280;15525;45.568;5.448;2023-03-03T02:30:12;98251.22;;;4.66;53.54
28267;BME280;15525;45.568;5.448;2023-03-03T02:32:38;98246.03;;;4.59;52.92
28267;BME280;15525;45.568;5.448;2023-03-03T02:35:27;98243.38;;;4.59;54.00
28267;BME280;15525;45.568;5.448;2023-03-03T02:37:55;98248.91;;;4.58;52.98
28267;BME280;15525;45.568;5.448;2023-03-03T02:40:25;98233.22;;;4.56;52.96
28267;BME280;15525;45.568;5.448;2023-03-03T02:42:54;98245.06;;;4.54;53.25
28267;BME280;15525;45.568;5.448;2023-03-03T02:45:21;98242.22;;;4.55;53.02
28267;BME280;15525;45.568;5.448;2023-03-03T02:47:50;98225.53;;;4.37;53.28
28267;BME280;15525;45.568;5.448;2023-03-03T02:50:16;98245.34;;;4.64;52.82
28267;BME280;15525;45.568;5.448;2023-03-03T02:52:41;98237.72;;;4.56;52.83
28267;BME280;15525;45.568;5.448;2023-03-03T02:55:07;98229.84;;;4.38;53.31
28267;BME280;15525;45.568;5.448;2023-03-03T02:57:32;98247.28;;;4.57;52.55
28267;BME280;15525;45.568;5.448;2023-03-03T02:59:58;98251.44;;;4.64;52.58
28267;BME280;15525;45.568;5.448;2023-03-03T03:02:23;98238.16;;;4.53;52.60
28267;BME280;15525;45.568;5.448;2023-03-03T03:04:50;98241.84;;;4.52;52.58
28267;BME280;15525;45.568;5.448;2023-03-03T03:07:15;98256.41;;;4.61;52.31
28267;BME280;15525;45.568;5.448;2023-03-03T03:09:41;98246.34;;;4.51;52.60
28267;BME280;15525;45.568;5.448;2023-03-03T03:12:06;98240.56;;;4.43;52.61
28267;BME280;15525;45.568;5.448;2023-03-03T03:14:32;98254.25;;;4.40;52.94
28267;BME280;15525;45.568;5.448;2023-03-03T03:16:58;98249.84;;;4.34;53.06
28267;BME280;15525;45.568;5.448;2023-03-03T03:19:23;98261.41;;;4.39;53.07
28267;BME280;15525;45.568;5.448;2023-03-03T03:21:48;98259.09;;;4.43;52.81
28267;BME280;15525;45.568;5.448;2023-03-03T03:24:14;98259.41;;;4.35;53.10
28267;BME280;15525;45.568;5.448;2023-03-03T03:26:39;98262.53;;;4.43;53.24
28267;BME280;15525;45.568;5.448;2023-03-03T03:29:05;98258.97;;;4.38;53.11
28267;BME280;15525;45.568;5.448;2023-03-03T03:31:31;98249.84;;;4.34;52.70
28267;BME280;15525;45.568;5.448;2023-03-03T03:33:57;98265.00;;;4.27;52.95
28267;BME280;15525;45.568;5.448;2023-03-03T03:36:24;98266.66;;;4.28;52.80
28267;BME280;15525;45.568;5.448;2023-03-03T03:38:51;98238.34;;;4.10;52.97
28267;BME280;15525;45.568;5.448;2023-03-03T03:41:16;98249.41;;;4.07;53.43
28267;BME280;15525;45.568;5.448;2023-03-03T03:43:42;98250.63;;;4.05;53.21
28267;BME280;15525;45.568;5.448;2023-03-03T03:46:07;98253.44;;;4.10;53.13
28267;BME280;15525;45.568;5.448;2023-03-03T03:48:33;98264.59;;;4.12;53.33
28267;BME280;15525;45.568;5.448;2023-03-03T03:50:59;98272.53;;;4.12;53.41
28267;BME280;15525;45.568;5.448;2023-03-03T03:53:25;98264.53;;;4.18;53.01
28267;BME280;15525;45.568;5.448;2023-03-03T03:55:50;98263.22;;;4.09;52.83
28267;BME280;15525;45.568;5.448;2023-03-03T03:58:16;98264.88;;;4.04;53.08
28267;BME280;15525;45.568;5.448;2023-03-03T04:00:43;98260.50;;;3.98;53.18
28267;BME280;15525;45.568;5.448;2023-03-03T04:03:09;98274.31;;;4.00;53.27
28267;BME280;15525;45.568;5.448;2023-03-03T04:05:35;98263.44;;;3.90;53.49
28267;BME280;15525;45.568;5.448;2023-03-03T04:08:00;98268.72;;;3.90;53.81
28267;BME280;15525;45.568;5.448;2023-03-03T04:10:26;98273.94;;;3.96;53.32
28267;BME280;15525;45.568;5.448;2023-03-03T04:12:51;98273.66;;;4.04;53.44
28267;BME280;15525;45.568;5.448;2023-03-03T04:15:17;98273.44;;;3.88;53.67
28267;BME280;15525;45.568;5.448;2023-03-03T04:17:42;98269.09;;;3.93;53.93
28267;BME280;15525;45.568;5.448;2023-03-03T04:20:10;98270.19;;;4.04;53.73
28267;BME280;15525;45.568;5.448;2023-03-03T04:22:36;98259.47;;;3.99;53.25
28267;BME280;15525;45.568;5.448;2023-03-03T04:25:03;98278.59;;;4.01;53.17
28267;BME280;15525;45.568;5.448;2023-03-03T04:27:34;98274.63;;;4.10;53.35
28267;BME280;15525;45.568;5.448;2023-03-03T04:30:00;98270.47;;;4.14;53.02
28267;BME280;15525;45.568;5.448;2023-03-03T04:32:26;98258.41;;;4.00;53.10
28267;BME280;15525;45.568;5.448;2023-03-03T04:34:52;98249.75;;;3.93;53.35
28267;BME280;15525;45.568;5.448;2023-03-03T04:37:18;98258.41;;;4.00;53.05
28267;BME280;15525;45.568;5.448;2023-03-03T04:39:43;98250.19;;;3.90;53.58
28267;BME280;15525;45.568;5.448;2023-03-03T04:42:10;98259.38;;;3.87;53.61
28267;BME280;15525;45.568;5.448;2023-03-03T04:44:36;98266.00;;;3.78;54.03
28267;BME280;15525;45.568;5.448;2023-03-03T04:47:01;98260.34;;;3.75;54.26
28267;BME280;15525;45.568;5.448;2023-03-03T04:49:26;98259.03;;;3.66;54.49
28267;BME280;15525;45.568;5.448;2023-03-03T04:51:52;98261.97;;;3.76;54.17
28267;BME280;15525;45.568;5.448;2023-03-03T04:54:17;98267.38;;;3.63;54.53
28267;BME280;15525;45.568;5.448;2023-03-03T04:56:43;98274.31;;;3.64;54.84
28267;BME280;15525;45.568;5.448;2023-03-03T04:59:08;98264.88;;;3.68;54.78
28267;BME280;15525;45.568;5.448;2023-03-03T05:01:34;98260.22;;;3.70;54.83
28267;BME280;15525;45.568;5.448;2023-03-03T05:03:59;98277.50;;;3.90;54.55
28267;BME280;15525;45.568;5.448;2023-03-03T05:06:24;98267.88;;;3.96;53.94
28267;BME280;15525;45.568;5.448;2023-03-03T05:08:50;98254.03;;;3.94;53.95
28267;BME280;15525;45.568;5.448;2023-03-03T05:11:15;98271.50;;;3.95;54.14
28267;BME280;15525;45.568;5.448;2023-03-03T05:13:41;98264.03;;;3.92;54.12
28267;BME280;15525;45.568;5.448;2023-03-03T05:16:06;98264.81;;;3.92;53.70
28267;BME280;15525;45.568;5.448;2023-03-03T05:18:32;98253.72;;;3.84;53.22
28267;BME280;15525;45.568;5.448;2023-03-03T05:20:57;98274.84;;;3.90;53.62
28267;BME280;15525;45.568;5.448;2023-03-03T05:23:23;98272.06;;;3.85;53.56
28267;BME280;15525;45.568;5.448;2023-03-03T05:25:49;98264.88;;;3.68;54.13
28267;BME280;15525;45.568;5.448;2023-03-03T05:28:16;98271.50;;;3.59;54.68
28267;BME280;15525;45.568;5.448;2023-03-03T05:30:42;98270.66;;;3.65;54.15
28267;BME280;15525;45.568;5.448;2023-03-03T05:33:08;98278.72;;;3.70;53.99
28267;BME280;15525;45.568;5.448;2023-03-03T05:35:34;98271.38;;;3.72;53.85
28267;BME280;15525;45.568;5.448;2023-03-03T05:38:00;98273.81;;;3.73;53.70
28267;BME280;15525;45.568;5.448;2023-03-03T05:40:26;98273.44;;;3.70;54.07
28267;BME280;15525;45.568;5.448;2023-03-03T05:42:52;98252.97;;;3.59;53.34
28267;BME280;15525;45.568;5.448;2023-03-03T05:45:18;98267.59;;;3.61;53.77
28267;BME280;15525;45.568;5.448;2023-03-03T05:47:46;98267.53;;;3.50;53.94
28267;BME280;15525;45.568;5.448;2023-03-03T05:50:12;98275.75;;;3.42;54.29
28267;BME280;15525;45.568;5.448;2023-03-03T05:52:38;98279.81;;;3.44;53.98
28267;BME280;15525;45.568;5.448;2023-03-03T05:55:04;98261.78;;;3.35;54.20
28267;BME280;15525;45.568;5.448;2023-03-03T05:57:29;98280.59;;;3.45;54.43
28267;BME280;15525;45.568;5.448;2023-03-03T05:59:55;98260.47;;;3.44;54.04
28267;BME280;15525;45.568;5.448;2023-03-03T06:02:21;98273.25;;;3.47;53.96
28267;BME280;15525;45.568;5.448;2023-03-03T06:04:46;98284.28;;;3.44;54.14
28267;BME280;15525;45.568;5.448;2023-03-03T06:07:12;98283.47;;;3.43;54.28
28267;BME280;15525;45.568;5.448;2023-03-03T06:09:37;98285.25;;;3.49;54.25
28267;BME280;15525;45.568;5.448;2023-03-03T06:12:03;98265.97;;;3.42;54.05
28267;BME280;15525;45.568;5.448;2023-03-03T06:14:29;98275.31;;;3.45;53.91
28267;BME280;15525;45.568;5.448;2023-03-03T06:16:54;98285.31;;;3.43;53.73
28267;BME280;15525;45.568;5.448;2023-03-03T06:19:19;98286.50;;;3.47;54.01
28267;BME280;15525;45.568;5.448;2023-03-03T06:21:45;98285.31;;;3.43;53.63
28267;BME280;15525;45.568;5.448;2023-03-03T06:24:10;98277.31;;;3.25;53.83
28267;BME280;15525;45.568;5.448;2023-03-03T06:26:36;98304.09;;;3.35;53.97
28267;BME280;15525;45.568;5.448;2023-03-03T06:29:01;98295.72;;;3.38;54.00
28267;BME280;15525;45.568;5.448;2023-03-03T06:31:27;98292.06;;;3.39;53.98
28267;BME280;15525;45.568;5.448;2023-03-03T06:33:53;98300.19;;;3.37;53.88
28267;BME280;15525;45.568;5.448;2023-03-03T06:36:19;98292.63;;;3.41;53.97
28267;BME280;15525;45.568;5.448;2023-03-03T06:38:45;98305.59;;;3.49;53.68
28267;BME280;15525;45.568;5.448;2023-03-03T06:41:10;98301.22;;;3.36;53.88
28267;BME280;15525;45.568;5.448;2023-03-03T06:43:36;98300.56;;;3.41;53.61
28267;BME280;15525;45.568;5.448;2023-03-03T06:46:03;98285.63;;;3.28;53.75
28267;BME280;15525;45.568;5.448;2023-03-03T06:48:29;98289.88;;;3.29;54.12
28267;BME280;15525;45.568;5.448;2023-03-03T06:50:55;98298.66;;;3.30;54.21
28267;BME280;15525;45.568;5.448;2023-03-03T06:53:21;98313.97;;;3.46;54.24
28267;BME280;15525;45.568;5.448;2023-03-03T06:55:46;98318.81;;;3.49;53.49
28267;BME280;15525;45.568;5.448;2023-03-03T06:58:14;98316.22;;;3.42;54.14
28267;BME280;15525;45.568;5.448;2023-03-03T07:00:45;98317.09;;;3.61;54.23
28267;BME280;15525;45.568;5.448;2023-03-03T07:03:17;98312.53;;;3.68;53.82
28267;BME280;15525;45.568;5.448;2023-03-03T07:05:43;98322.97;;;3.81;53.66
28267;BME280;15525;45.568;5.448;2023-03-03T07:08:17;98330.22;;;3.92;53.98
28267;BME280;15525;45.568;5.448;2023-03-03T07:10:43;98319.91;;;4.02;53.54
28267;BME280;15525;45.568;5.448;2023-03-03T07:13:28;98295.63;;;4.05;53.08
28267;BME280;15525;45.568;5.448;2023-03-03T07:15:58;98325.22;;;4.38;53.81
28267;BME280;15525;45.568;5.448;2023-03-03T07:20:54;98329.88;;;4.54;52.42
28267;BME280;15525;45.568;5.448;2023-03-03T07:23:24;98326.19;;;4.55;52.31
28267;BME280;15525;45.568;5.448;2023-03-03T07:25:50;98318.63;;;4.58;52.28
28267;BME280;15525;45.568;5.448;2023-03-03T07:30:50;98333.34;;;4.84;52.36
28267;BME280;15525;45.568;5.448;2023-03-03T07:33:25;98326.88;;;4.80;52.87
28267;BME280;15525;45.568;5.448;2023-03-03T07:35:54;98337.09;;;4.94;52.42
28267;BME280;15525;45.568;5.448;2023-03-03T07:38:41;98323.59;;;5.07;52.72
28267;BME280;15525;45.568;5.448;2023-03-03T07:41:12;98329.63;;;5.03;52.29
28267;BME280;15525;45.568;5.448;2023-03-03T07:43:42;98333.25;;;5.20;52.45
28267;BME280;15525;45.568;5.448;2023-03-03T07:48:44;98326.63;;;5.11;52.26
28267;BME280;15525;45.568;5.448;2023-03-03T07:51:19;98314.72;;;4.90;53.99
28267;BME280;15525;45.568;5.448;2023-03-03T07:53:47;98325.00;;;5.10;52.89
28267;BME280;15525;45.568;5.448;2023-03-03T07:58:47;98336.63;;;5.50;52.69
28267;BME280;15525;45.568;5.448;2023-03-03T08:01:35;98344.13;;;5.53;54.33
28267;BME280;15525;45.568;5.448;2023-03-03T08:04:28;98345.72;;;5.42;53.75
28267;BME280;15525;45.568;5.448;2023-03-03T08:06:59;98350.13;;;5.71;53.84
28267;BME280;15525;45.568;5.448;2023-03-03T08:09:42;98349.72;;;5.97;53.14
28267;BME280;15525;45.568;5.448;2023-03-03T08:14:37;98354.34;;;6.02;52.91
28267;BME280;15525;45.568;5.448;2023-03-03T08:17:25;98360.91;;;6.22;53.68
28267;BME280;15525;45.568;5.448;2023-03-03T08:19:55;98349.56;;;6.27;52.78
28267;BME280;15525;45.568;5.448;2023-03-03T08:22:34;98369.06;;;6.44;53.05
28267;BME280;15525;45.568;5.448;2023-03-03T08:25:02;98348.59;;;6.44;52.90
28267;BME280;15525;45.568;5.448;2023-03-03T08:27:28;98327.50;;;6.15;53.45
28267;BME280;15525;45.568;5.448;2023-03-03T08:29:53;98363.16;;;6.42;53.55
28267;BME280;15525;45.568;5.448;2023-03-03T08:32:19;98358.56;;;6.77;52.82
28267;BME280;15525;45.568;5.448;2023-03-03T08:34:44;98365.41;;;7.01;52.56
28267;BME280;15525;45.568;5.448;2023-03-03T08:37:09;98363.97;;;6.82;53.23
28267;BME280;15525;45.568;5.448;2023-03-03T08:39:35;98366.34;;;7.23;52.83
28267;BME280;15525;45.568;5.448;2023-03-03T08:42:00;98359.97;;;7.40;52.22
28267;BME280;15525;45.568;5.448;2023-03-03T08:44:26;98365.03;;;7.25;52.23
28267;BME280;15525;45.568;5.448;2023-03-03T08:46:51;98370.38;;;7.42;52.93
28267;BME280;15525;45.568;5.448;2023-03-03T08:49:17;98347.09;;;7.49;52.60
28267;BME280;15525;45.568;5.448;2023-03-03T08:51:42;98354.09;;;7.55;52.57
28267;BME280;15525;45.568;5.448;2023-03-03T08:54:07;98365.72;;;7.65;52.81
28267;BME280;15525;45.568;5.448;2023-03-03T08:56:33;98354.66;;;7.90;52.32
28267;BME280;15525;45.568;5.448;2023-03-03T08:58:58;98349.72;;;7.98;51.76
28267;BME280;15525;45.568;5.448;2023-03-03T09:01:24;98347.78;;;7.94;52.14
28267;BME280;15525;45.568;5.448;2023-03-03T09:03:49;98339.59;;;8.17;51.60
28267;BME280;15525;45.568;5.448;2023-03-03T09:06:15;98351.09;;;8.39;51.94
28267;BME280;15525;45.568;5.448;2023-03-03T09:08:40;98354.94;;;8.48;51.39
28267;BME280;15525;45.568;5.448;2023-03-03T09:11:12;98349.66;;;8.53;51.29
28267;BME280;15525;45.568;5.448;2023-03-03T09:13:37;98351.47;;;8.69;51.26
28267;BME280;15525;45.568;5.448;2023-03-03T09:16:13;98344.38;;;9.01;50.16
28267;BME280;15525;45.568;5.448;2023-03-03T09:18:39;98338.75;;;9.29;49.94
28267;BME280;15525;45.568;5.448;2023-03-03T09:21:25;98335.44;;;9.80;49.57
28267;BME280;15525;45.568;5.448;2023-03-03T09:23:57;98355.25;;;9.21;49.26
28267;BME280;15525;45.568;5.448;2023-03-03T09:31:47;98357.63;;;9.49;49.17
28267;BME280;15525;45.568;5.448;2023-03-03T09:36:42;98353.50;;;9.63;48.57
28267;BME280;15525;45.568;5.448;2023-03-03T09:39:16;98339.59;;;9.97;47.84
28267;BME280;15525;45.568;5.448;2023-03-03T09:44:50;98349.91;;;9.21;49.20
28267;BME280;15525;45.568;5.448;2023-03-03T09:55:58;98351.00;;;9.88;47.82
28267;BME280;15525;45.568;5.448;2023-03-03T10:01:05;98345.75;;;11.41;45.50
28267;BME280;15525;45.568;5.448;2023-03-03T10:06:44;98358.06;;;11.22;45.31
28267;BME280;15525;45.568;5.448;2023-03-03T10:15:16;98363.41;;;11.17;46.04
28267;BME280;15525;45.568;5.448;2023-03-03T10:17:51;98355.56;;;10.80;46.79
28267;BME280;15525;45.568;5.448;2023-03-03T10:22:57;98360.88;;;10.70;47.15
28267;BME280;15525;45.568;5.448;2023-03-03T10:27:57;98361.78;;;10.34;47.66
28267;BME280;15525;45.568;5.448;2023-03-03T10:31:26;98363.44;;;10.45;47.51
28267;BME280;15525;45.568;5.448;2023-03-03T10:33:31;98357.84;;;10.52;47.01
28267;BME280;15525;45.568;5.448;2023-03-03T10:36:23;98364.59;;;10.69;46.67
28267;BME280;15525;45.568;5.448;2023-03-03T11:00:25;98342.34;;;11.91;45.04
28267;BME280;15525;45.568;5.448;2023-03-03T11:03:32;98355.97;;;12.19;44.14
28267;BME280;15525;45.568;5.448;2023-03-03T11:06:04;98345.81;;;12.01;44.74
28267;BME280;15525;45.568;5.448;2023-03-03T11:08:44;98354.13;;;11.79;45.44
28267;BME280;15525;45.568;5.448;2023-03-03T11:11:27;98334.00;;;12.02;45.00
28267;BME280;15525;45.568;5.448;2023-03-03T11:14:11;98338.25;;;12.18;44.79
28267;BME280;15525;45.568;5.448;2023-03-03T11:16:52;98312.13;;;12.54;43.77
28267;BME280;15525;45.568;5.448;2023-03-03T11:33:03;98323.84;;;11.74;44.52
28267;BME280;15525;45.568;5.448;2023-03-03T11:38:37;98318.44;;;11.94;44.17
28267;BME280;15525;45.568;5.448;2023-03-03T11:43:50;98325.19;;;11.82;45.03
28267;BME280;15525;45.568;5.448;2023-03-03T11:46:33;98319.19;;;12.25;44.49
28267;BME280;15525;45.568;5.448;2023-03-03T11:49:08;98307.06;;;12.42;43.86
28267;BME280;15525;45.568;5.448;2023-03-03T11:52:00;98307.28;;;12.51;44.00
28267;BME280;15525;45.568;5.448;2023-03-03T11:59:48;98315.47;;;12.06;44.46
28267;BME280;15525;45.568;5.448;2023-03-03T12:05:41;98319.50;;;12.82;42.99
28267;BME280;15525;45.568;5.448;2023-03-03T12:16:30;98304.75;;;12.79;43.67
28267;BME280;15525;45.568;5.448;2023-03-03T12:22:21;98294.66;;;12.56;43.60
28267;BME280;15525;45.568;5.448;2023-03-03T12:24:57;98290.91;;;12.52;44.14
28267;BME280;15525;45.568;5.448;2023-03-03T12:27:34;98284.75;;;12.47;43.51
28267;BME280;15525;45.568;5.448;2023-03-03T12:35:38;98275.41;;;12.34;43.29
28267;BME280;15525;45.568;5.448;2023-03-03T12:40:56;98273.81;;;12.23;43.79
28267;BME280;15525;45.568;5.448;2023-03-03T12:44:05;98285.03;;;12.40;43.62
28267;BME280;15525;45.568;5.448;2023-03-03T12:47:02;98280.38;;;12.61;42.95
28267;BME280;15525;45.568;5.448;2023-03-03T12:49:40;98291.06;;;12.07;43.98
28267;BME280;15525;45.568;5.448;2023-03-03T12:58:15;98298.06;;;11.33;45.10
28267;BME280;15525;45.568;5.448;2023-03-03T13:00:42;98270.75;;;11.46;44.99
28267;BME280;15525;45.568;5.448;2023-03-03T13:06:16;98288.66;;;12.06;44.12
28267;BME280;15525;45.568;5.448;2023-03-03T13:08:55;98275.31;;;11.60;44.94
28267;BME280;15525;45.568;5.448;2023-03-03T13:11:58;98285.75;;;11.92;44.61
28267;BME280;15525;45.568;5.448;2023-03-03T13:22:12;98284.41;;;11.90;43.72
28267;BME280;15525;45.568;5.448;2023-03-03T13:27:29;98272.69;;;12.44;43.00
28267;BME280;15525;45.568;5.448;2023-03-03T13:30:22;98278.16;;;12.09;43.17
28267;BME280;15525;45.568;5.448;2023-03-03T13:35:30;98272.88;;;11.79;44.40
28267;BME280;15525;45.568;5.448;2023-03-03T13:37:58;98253.03;;;11.35;44.47
28267;BME280;15525;45.568;5.448;2023-03-03T13:40:53;98258.63;;;11.93;43.99
28267;BME280;15525;45.568;5.448;2023-03-03T13:43:25;98259.00;;;12.46;42.57
28267;BME280;15525;45.568;5.448;2023-03-03T13:46:01;98266.19;;;12.60;42.22
28267;BME280;15525;45.568;5.448;2023-03-03T13:51:31;98277.69;;;11.82;43.72
28267;BME280;15525;45.568;5.448;2023-03-03T14:02:46;98273.31;;;12.16;43.47
28267;BME280;15525;45.568;5.448;2023-03-03T14:05:24;98264.16;;;12.27;43.05
28267;BME280;15525;45.568;5.448;2023-03-03T14:07:57;98255.75;;;11.65;44.00
28267;BME280;15525;45.568;5.448;2023-03-03T14:10:43;98270.16;;;11.94;43.30
28267;BME280;15525;45.568;5.448;2023-03-03T14:13:17;98269.53;;;12.27;43.14
28267;BME280;15525;45.568;5.448;2023-03-03T14:18:29;98261.16;;;12.39;42.87
28267;BME280;15525;45.568;5.448;2023-03-03T14:21:38;98270.59;;;12.31;42.73
28267;BME280;15525;45.568;5.448;2023-03-03T14:24:16;98262.78;;;12.30;42.65
28267;BME280;15525;45.568;5.448;2023-03-03T14:26:56;98274.34;;;12.30;42.96
28267;BME280;15525;45.568;5.448;2023-03-03T14:31:50;98267.28;;;12.49;42.88
28267;BME280;15525;45.568;5.448;2023-03-03T14:36:48;98267.84;;;12.51;42.92
28267;BME280;15525;45.568;5.448;2023-03-03T14:39:31;98272.72;;;12.34;42.93
28267;BME280;15525;45.568;5.448;2023-03-03T14:41:57;98262.56;;;12.26;43.27
28267;BME280;15525;45.568;5.448;2023-03-03T14:44:35;98267.88;;;12.36;42.98
28267;BME280;15525;45.568;5.448;2023-03-03T14:49:36;98273.69;;;11.90;43.67
28267;BME280;15525;45.568;5.448;2023-03-03T14:54:34;98252.25;;;11.69;43.51
28267;BME280;15525;45.568;5.448;2023-03-03T14:57:36;98264.31;;;11.52;43.91
28267;BME280;15525;45.568;5.448;2023-03-03T15:03:42;98251.97;;;11.36;44.52
28267;BME280;15525;45.568;5.448;2023-03-03T15:05:50;98251.69;;;11.37;43.73
28267;BME280;15525;45.568;5.448;2023-03-03T15:08:23;98259.75;;;11.17;44.46
28267;BME280;15525;45.568;5.448;2023-03-03T15:10:51;98249.31;;;11.61;43.96
28267;BME280;15525;45.568;5.448;2023-03-03T15:16:01;98266.97;;;11.72;43.80
28267;BME280;15525;45.568;5.448;2023-03-03T15:18:29;98258.94;;;11.87;43.55
28267;BME280;15525;45.568;5.448;2023-03-03T15:26:43;98245.56;;;12.46;42.72
28267;BME280;15525;45.568;5.448;2023-03-03T15:29:33;98242.63;;;12.37;42.26
28267;BME280;15525;45.568;5.448;2023-03-03T15:40:25;98256.53;;;11.25;43.92
28267;BME280;15525;45.568;5.448;2023-03-03T15:43:10;98261.34;;;11.38;43.85
28267;BME280;15525;45.568;5.448;2023-03-03T15:45:51;98258.94;;;11.52;43.60
28267;BME280;15525;45.568;5.448;2023-03-03T16:04:03;98283.59;;;11.19;44.37
28267;BME280;15525;45.568;5.448;2023-03-03T16:06:44;98279.31;;;11.33;44.06
28267;BME280;15525;45.568;5.448;2023-03-03T16:20:43;98265.63;;;10.94;44.61
28267;BME280;15525;45.568;5.448;2023-03-03T16:23:41;98283.28;;;10.90;44.85
28267;BME280;15525;45.568;5.448;2023-03-03T16:34:33;98273.56;;;10.59;45.22
28267;BME280;15525;45.568;5.448;2023-03-03T16:37:13;98286.78;;;10.91;44.71
28267;BME280;15525;45.568;5.448;2023-03-03T16:42:38;98287.25;;;10.68;44.50
28267;BME280;15525;45.568;5.448;2023-03-03T17:04:38;98327.06;;;10.54;45.53
28267;BME280;15525;45.568;5.448;2023-03-03T17:23:39;98348.22;;;10.56;44.97
28267;BME280;15525;45.568;5.448;2023-03-03T17:28:39;98347.38;;;10.50;45.55
28267;BME280;15525;45.568;5.448;2023-03-03T17:31:32;98345.81;;;10.54;45.28
28267;BME280;15525;45.568;5.448;2023-03-03T17:34:10;98357.06;;;10.56;45.01
28267;BME280;15525;45.568;5.448;2023-03-03T17:45:07;98364.97;;;10.36;46.05
28267;BME280;15525;45.568;5.448;2023-03-03T17:55:55;98373.19;;;10.20;45.73
28267;BME280;15525;45.568;5.448;2023-03-03T18:04:12;98382.38;;;10.34;45.85
28267;BME280;15525;45.568;5.448;2023-03-03T18:09:50;98383.63;;;10.21;45.57
28267;BME280;15525;45.568;5.448;2023-03-03T18:12:11;98384.38;;;10.17;45.66
28267;BME280;15525;45.568;5.448;2023-03-03T18:23:29;98387.00;;;10.07;46.53
28267;BME280;15525;45.568;5.448;2023-03-03T18:26:02;98404.16;;;10.11;45.76
28267;BME280;15525;45.568;5.448;2023-03-03T18:28:50;98407.75;;;9.95;46.80